Time;durP1;ratioP1;P1;durP2;ratioP2;P2;SDS_P1;SDS_P2;PMS_P1;PMS_P2;Temp;Humidity;BMP_temperature;BMP_pressure;BME280_temperature;BME280_humidity;BME280_pressure;Samples;Min_cycle;Max_cycle;Signal;HPM_P1;HPM_P2
2022/09/30 00:01:09;;;;;;;;;;;28.00;90.60;;;;;;5145086;28;24085;-54
2022/09/30 00:03:35;;;;;;;;;;;28.00;90.60;;;;;;5144418;28;24087;-56
2022/09/30 00:06:03;;;;;;;;;;;28.00;90.50;;;;;;5144871;28;19998;-56
2022/09/30 00:08:36;;;;;;;;;;;28.00;90.60;;;;;;5144805;28;19907;-56
2022/09/30 00:11:07;;;;;;;;;;;28.00;90.70;;;;;;5126386;28;20236;-55
2022/09/30 00:13:34;;;;;;;;;;;27.90;90.60;;;;;;5144552;28;19932;-55
2022/09/30 00:16:00;;;;;;;;;;;28.00;90.60;;;;;;5144811;28;19923;-58
2022/09/30 00:18:27;;;;;;;;;;;27.90;90.50;;;;;;5144629;28;19931;-54
2022/09/30 00:20:53;;;;;;;;;;;27.90;90.60;;;;;;5144203;28;19945;-56
2022/09/30 00:23:20;;;;;;;;;;;27.90;90.60;;;;;;5144750;28;20208;-55
2022/09/30 00:25:47;;;;;;;;;;;27.90;90.40;;;;;;5144644;28;19903;-51
2022/09/30 00:28:16;;;;;;;;;;;27.90;90.50;;;;;;5144523;28;19930;-57
2022/09/30 00:30:42;;;;;;;;;;;27.90;90.50;;;;;;5145115;27;19905;-53
2022/09/30 00:33:09;;;;;;;;;;;27.90;90.60;;;;;;5148316;27;19919;-55
2022/09/30 00:35:37;;;;;;;;;;;27.90;90.70;;;;;;5148431;27;24073;-53
2022/09/30 00:38:03;;;;;;;;;;;27.90;90.70;;;;;;5148218;27;19923;-55
2022/09/30 00:40:29;;;;;;;;;;;27.90;90.60;;;;;;5148816;27;19903;-54
2022/09/30 00:42:57;;;;;;;;;;;27.90;90.70;;;;;;5142767;27;19912;-52
2022/09/30 00:45:26;;;;;;;;;;;27.90;90.70;;;;;;5120096;28;19904;-58
2022/09/30 00:47:54;;;;;;;;;;;27.80;90.80;;;;;;5129266;27;19980;-57
2022/09/30 00:50:27;;;;;;;;;;;27.90;90.90;;;;;;5123081;28;19904;-60
2022/09/30 00:52:59;;;;;;;;;;;27.90;90.80;;;;;;5107567;28;19941;-56
2022/09/30 00:55:33;;;;;;;;;;;27.90;90.90;;;;;;5126356;28;19919;-58
2022/09/30 00:58:00;;;;;;;;;;;27.90;91.00;;;;;;5112426;28;24099;-59
2022/09/30 01:00:26;;;;;;;;;;;27.90;91.10;;;;;;5119233;28;24070;-58
2022/09/30 01:02:53;;;;;;;;;;;27.90;91.10;;;;;;5116614;28;19979;-59
2022/09/30 01:05:19;;;;;;;;;;;27.90;91.10;;;;;;5103089;28;19911;-57
2022/09/30 01:07:47;;;;;;;;;;;27.90;91.20;;;;;;5109160;28;19974;-51
2022/09/30 01:10:14;;;;;;;;;;;27.90;91.20;;;;;;5103902;28;24056;-50
2022/09/30 01:12:40;;;;;;;;;;;27.80;91.30;;;;;;5124198;28;19908;-53
2022/09/30 01:15:06;;;;;;;;;;;27.70;91.30;;;;;;5125156;27;19911;-53
2022/09/30 01:17:35;;;;;;;;;;;27.60;91.80;;;;;;5143236;27;24070;-48
2022/09/30 01:20:34;;;;;;;;;;;27.50;92.00;;;;;;5143809;27;19912;-48
2022/09/30 01:23:00;;;;;;;;;;;27.40;92.00;;;;;;5081528;28;25089;-56
2022/09/30 01:25:32;;;;;;;;;;;27.30;92.30;;;;;;5126821;28;19939;-54
2022/09/30 01:28:17;;;;;;;;;;;27.40;92.30;;;;;;5114495;28;24086;-58
2022/09/30 01:30:52;;;;;;;;;;;27.40;92.20;;;;;;5120192;28;20118;-61
2022/09/30 01:33:37;;;;;;;;;;;27.50;92.10;;;;;;5127248;28;19922;-61
2022/09/30 01:36:06;;;;;;;;;;;27.50;92.10;;;;;;5135707;27;19914;-60
2022/09/30 01:38:50;;;;;;;;;;;27.50;92.20;;;;;;5125732;28;25060;-59
2022/09/30 01:41:43;;;;;;;;;;;27.50;92.30;;;;;;5125758;28;19904;-55
2022/09/30 01:44:16;;;;;;;;;;;27.50;92.40;;;;;;5121837;28;19949;-59
2022/09/30 01:46:59;;;;;;;;;;;27.40;92.40;;;;;;5125811;28;19918;-59
2022/09/30 01:49:45;;;;;;;;;;;27.40;92.40;;;;;;5113614;28;19920;-57
2022/09/30 01:52:12;;;;;;;;;;;27.40;92.60;;;;;;5139855;27;19907;-60
2022/09/30 01:54:45;;;;;;;;;;;27.30;92.40;;;;;;5128026;27;19938;-57
2022/09/30 01:57:11;;;;;;;;;;;27.30;92.30;;;;;;5147022;27;20143;-58
2022/09/30 01:59:50;;;;;;;;;;;27.30;92.10;;;;;;5146721;27;24095;-57
2022/09/30 02:02:18;;;;;;;;;;;27.30;92.00;;;;;;5146513;27;25053;-58
2022/09/30 02:04:48;;;;;;;;;;;27.30;91.90;;;;;;5146678;27;19907;-58
2022/09/30 02:07:24;;;;;;;;;;;27.30;91.90;;;;;;5146380;27;19907;-57
2022/09/30 02:09:56;;;;;;;;;;;27.30;92.10;;;;;;5146353;27;19923;-55
2022/09/30 02:12:24;;;;;;;;;;;27.30;91.80;;;;;;5146406;27;19911;-58
2022/09/30 02:14:58;;;;;;;;;;;27.30;91.90;;;;;;5146677;27;20167;-56
2022/09/30 02:17:29;;;;;;;;;;;27.20;91.70;;;;;;5146375;27;19949;-57
2022/09/30 02:20:00;;;;;;;;;;;27.20;91.70;;;;;;5121488;27;19911;-57
2022/09/30 02:22:31;;;;;;;;;;;27.20;91.80;;;;;;5105911;28;19908;-55
2022/09/30 02:24:59;;;;;;;;;;;27.20;91.80;;;;;;5094786;28;19977;-56
2022/09/30 02:28:08;;;;;;;;;;;27.20;91.80;;;;;;5107079;28;20009;-56
2022/09/30 02:30:35;;;;;;;;;;;27.20;91.80;;;;;;5116298;28;19903;-55
2022/09/30 02:33:03;;;;;;;;;;;27.30;91.80;;;;;;5125559;28;24138;-58
2022/09/30 02:35:33;;;;;;;;;;;27.30;91.80;;;;;;5125427;28;19907;-56
2022/09/30 02:38:04;;;;;;;;;;;27.30;91.80;;;;;;5125465;28;19904;-58
2022/09/30 02:40:35;;;;;;;;;;;27.30;91.80;;;;;;5125162;28;19903;-57
2022/09/30 02:43:03;;;;;;;;;;;27.30;91.90;;;;;;5125005;28;25147;-59
2022/09/30 02:45:30;;;;;;;;;;;27.30;91.80;;;;;;5124815;28;19939;-59
2022/09/30 02:47:57;;;;;;;;;;;27.30;91.90;;;;;;5125014;28;19972;-58
2022/09/30 02:50:23;;;;;;;;;;;27.30;91.90;;;;;;5117923;28;19903;-60
2022/09/30 02:52:52;;;;;;;;;;;27.30;91.90;;;;;;5107401;28;24071;-54
2022/09/30 02:55:23;;;;;;;;;;;27.30;91.90;;;;;;5104832;27;19931;-59
2022/09/30 02:57:59;;;;;;;;;;;27.30;91.90;;;;;;5146346;27;19954;-57
2022/09/30 03:00:25;;;;;;;;;;;27.30;91.90;;;;;;5133454;27;24115;-57
2022/09/30 03:03:01;;;;;;;;;;;27.30;91.90;;;;;;5106779;28;24059;-56
2022/09/30 03:05:28;;;;;;;;;;;27.30;91.80;;;;;;5124996;28;19911;-57
2022/09/30 03:07:55;;;;;;;;;;;27.30;91.70;;;;;;5124885;28;19974;-59
2022/09/30 03:10:21;;;;;;;;;;;27.30;91.60;;;;;;5124656;28;19904;-57
2022/09/30 03:12:54;;;;;;;;;;;27.30;91.50;;;;;;5106767;28;19908;-58
2022/09/30 03:15:52;;;;;;;;;;;27.30;91.30;;;;;;5124746;28;19930;-59
2022/09/30 03:18:18;;;;;;;;;;;27.30;91.10;;;;;;5079750;28;19915;-62
2022/09/30 03:20:57;;;;;;;;;;;27.30;91.00;;;;;;5117751;28;19908;-58
2022/09/30 03:23:24;;;;;;;;;;;27.30;90.90;;;;;;5104673;28;24107;-57
2022/09/30 03:25:55;;;;;;;;;;;27.30;90.80;;;;;;5123763;28;19903;-57
2022/09/30 03:28:28;;;;;;;;;;;27.30;90.80;;;;;;5124783;28;19923;-57
2022/09/30 03:31:12;;;;;;;;;;;27.20;90.80;;;;;;5124776;28;19903;-57
2022/09/30 03:33:38;;;;;;;;;;;27.20;90.80;;;;;;5124738;28;19973;-58
2022/09/30 03:36:12;;;;;;;;;;;27.20;90.80;;;;;;5124523;28;19915;-58
2022/09/30 03:38:46;;;;;;;;;;;27.20;90.80;;;;;;5124188;28;19931;-54
2022/09/30 03:41:31;;;;;;;;;;;27.20;90.70;;;;;;5125019;28;19904;-56
2022/09/30 03:44:01;;;;;;;;;;;27.20;90.60;;;;;;5124512;28;19914;-56
2022/09/30 03:46:33;;;;;;;;;;;27.20;90.60;;;;;;5125293;28;20176;-56
2022/09/30 03:49:02;;;;;;;;;;;27.20;90.50;;;;;;5124527;28;24108;-59
2022/09/30 03:51:28;;;;;;;;;;;27.20;90.50;;;;;;5124723;28;20203;-56
2022/09/30 03:53:55;;;;;;;;;;;27.20;90.80;;;;;;5123481;28;19939;-57
2022/09/30 03:56:26;;;;;;;;;;;27.10;90.40;;;;;;5124772;28;24074;-58
2022/09/30 03:58:52;;;;;;;;;;;27.10;90.40;;;;;;5124492;28;19923;-58
2022/09/30 04:01:22;;;;;;;;;;;27.10;90.40;;;;;;5124634;28;20222;-57
2022/09/30 04:03:52;;;;;;;;;;;27.10;90.50;;;;;;5124308;28;19907;-57
2022/09/30 04:06:20;;;;;;;;;;;27.10;90.40;;;;;;5128043;28;19944;-57
2022/09/30 04:08:46;;;;;;;;;;;27.10;90.40;;;;;;5127878;28;19907;-57
2022/09/30 04:11:12;;;;;;;;;;;27.10;90.40;;;;;;5128448;28;19979;-56
2022/09/30 04:13:39;;;;;;;;;;;27.10;90.30;;;;;;5128206;28;19904;-56
2022/09/30 04:16:06;;;;;;;;;;;27.10;90.20;;;;;;5127541;28;19914;-56
2022/09/30 04:18:37;;;;;;;;;;;27.10;90.10;;;;;;5128064;28;19908;-57
2022/09/30 04:21:05;;;;;;;;;;;27.10;90.10;;;;;;5127714;28;24110;-58
2022/09/30 04:23:33;;;;;;;;;;;27.10;90.10;;;;;;5128104;28;19943;-57
2022/09/30 04:25:59;;;;;;;;;;;27.10;90.10;;;;;;5127002;28;19903;-57
2022/09/30 04:28:25;;;;;;;;;;;27.10;90.20;;;;;;5128035;28;19907;-56
2022/09/30 04:30:52;;;;;;;;;;;27.10;90.20;;;;;;5128070;28;19908;-57
2022/09/30 04:33:19;;;;;;;;;;;27.10;90.20;;;;;;5127597;28;19916;-57
2022/09/30 04:35:45;;;;;;;;;;;27.10;90.20;;;;;;5127926;28;19915;-55
2022/09/30 04:38:11;;;;;;;;;;;27.10;90.10;;;;;;5127884;28;24064;-57
2022/09/30 04:40:37;;;;;;;;;;;27.10;90.00;;;;;;5128106;28;20240;-55
2022/09/30 04:43:05;;;;;;;;;;;27.10;89.80;;;;;;5127988;28;24085;-57
2022/09/30 04:45:31;;;;;;;;;;;27.10;89.70;;;;;;5109561;28;24113;-57
2022/09/30 04:47:57;;;;;;;;;;;27.10;89.30;;;;;;5127784;28;19904;-56
2022/09/30 04:50:24;;;;;;;;;;;27.10;89.20;;;;;;5127875;28;20104;-57
2022/09/30 04:52:50;;;;;;;;;;;27.10;89.10;;;;;;5127884;28;24063;-57
2022/09/30 04:55:16;;;;;;;;;;;27.10;89.10;;;;;;5127619;28;20229;-60
2022/09/30 04:57:43;;;;;;;;;;;27.10;89.00;;;;;;5127555;28;19903;-57
2022/09/30 05:00:10;;;;;;;;;;;27.10;89.10;;;;;;5127293;28;19914;-57
2022/09/30 05:02:36;;;;;;;;;;;27.10;89.50;;;;;;5127281;28;24078;-61
2022/09/30 05:05:03;;;;;;;;;;;27.10;88.90;;;;;;5109218;28;20088;-55
2022/09/30 05:07:32;;;;;;;;;;;27.10;88.90;;;;;;5127469;28;24099;-58
2022/09/30 05:09:58;;;;;;;;;;;27.10;88.90;;;;;;5127488;28;19915;-58
2022/09/30 05:12:25;;;;;;;;;;;27.10;89.00;;;;;;5126860;28;19912;-58
2022/09/30 05:14:51;;;;;;;;;;;27.10;89.00;;;;;;5127130;28;19907;-56
2022/09/30 05:17:17;;;;;;;;;;;27.00;89.20;;;;;;5126420;28;19904;-57
2022/09/30 05:19:43;;;;;;;;;;;27.10;89.30;;;;;;5127000;28;20240;-59
2022/09/30 05:22:09;;;;;;;;;;;27.00;89.10;;;;;;5127367;28;19896;-57
2022/09/30 05:24:35;;;;;;;;;;;27.10;89.30;;;;;;5126826;28;19940;-57
2022/09/30 05:27:02;;;;;;;;;;;27.00;89.50;;;;;;5126720;28;20128;-58
2022/09/30 05:29:28;;;;;;;;;;;27.00;89.70;;;;;;5126917;28;19900;-55
2022/09/30 05:31:54;;;;;;;;;;;27.00;90.00;;;;;;5126585;28;24096;-56
2022/09/30 05:34:21;;;;;;;;;;;27.00;90.00;;;;;;5126380;28;20001;-56
2022/09/30 05:36:47;;;;;;;;;;;27.00;90.10;;;;;;5126938;28;19970;-57
2022/09/30 05:39:13;;;;;;;;;;;27.00;90.10;;;;;;5126824;28;20167;-57
2022/09/30 05:41:40;;;;;;;;;;;27.00;90.20;;;;;;5126839;28;24089;-57
2022/09/30 05:44:08;;;;;;;;;;;27.00;90.30;;;;;;5126619;28;20272;-57
2022/09/30 05:46:34;;;;;;;;;;;27.00;90.20;;;;;;5126931;28;20171;-57
2022/09/30 05:49:00;;;;;;;;;;;27.00;90.30;;;;;;5126425;28;24050;-57
2022/09/30 05:51:26;;;;;;;;;;;27.00;90.30;;;;;;5126653;28;20195;-56
2022/09/30 05:53:52;;;;;;;;;;;26.90;90.40;;;;;;5126084;28;25103;-56
2022/09/30 05:56:18;;;;;;;;;;;27.00;90.50;;;;;;5126582;28;20184;-59
2022/09/30 05:58:46;;;;;;;;;;;27.00;90.40;;;;;;5126136;28;19899;-59
2022/09/30 06:01:13;;;;;;;;;;;26.90;90.40;;;;;;5126662;28;20066;-57
2022/09/30 06:03:39;;;;;;;;;;;27.00;90.40;;;;;;5125928;28;19906;-56
2022/09/30 06:06:06;;;;;;;;;;;26.90;90.40;;;;;;5125885;28;19975;-58
2022/09/30 06:08:32;;;;;;;;;;;26.90;90.40;;;;;;5126137;28;20210;-55
2022/09/30 06:10:59;;;;;;;;;;;27.00;90.50;;;;;;5125908;28;24103;-57
2022/09/30 06:13:25;;;;;;;;;;;26.90;90.50;;;;;;5125986;28;20187;-57
2022/09/30 06:15:58;;;;;;;;;;;26.90;90.40;;;;;;5126144;28;19911;-59
2022/09/30 06:18:26;;;;;;;;;;;26.90;90.50;;;;;;5125999;28;19899;-56
2022/09/30 06:20:55;;;;;;;;;;;26.90;90.50;;;;;;5125547;28;24086;-58
2022/09/30 06:23:21;;;;;;;;;;;26.90;90.40;;;;;;5125856;28;24092;-59
2022/09/30 06:25:51;;;;;;;;;;;26.90;90.30;;;;;;5125778;28;19930;-56
2022/09/30 06:28:17;;;;;;;;;;;26.90;90.30;;;;;;5125904;28;24072;-56
2022/09/30 06:30:43;;;;;;;;;;;26.90;90.30;;;;;;5126043;28;24067;-55
2022/09/30 06:33:09;;;;;;;;;;;26.90;90.30;;;;;;5125392;28;19948;-54
2022/09/30 06:35:41;;;;;;;;;;;26.90;90.30;;;;;;5125326;28;20184;-57
2022/09/30 06:38:08;;;;;;;;;;;26.90;90.30;;;;;;5125310;28;24108;-55
2022/09/30 06:40:34;;;;;;;;;;;26.90;90.20;;;;;;5125726;28;19908;-58
2022/09/30 06:43:01;;;;;;;;;;;26.90;90.20;;;;;;5125370;28;19900;-55
2022/09/30 06:45:28;;;;;;;;;;;26.90;90.20;;;;;;5125369;28;20221;-57
2022/09/30 06:48:01;;;;;;;;;;;26.90;90.20;;;;;;5125366;28;19907;-57
2022/09/30 06:50:28;;;;;;;;;;;26.90;90.10;;;;;;5125283;28;19914;-58
2022/09/30 06:52:59;;;;;;;;;;;26.90;90.20;;;;;;5124908;28;19935;-58
2022/09/30 06:55:26;;;;;;;;;;;26.90;90.10;;;;;;5125096;28;25056;-61
2022/09/30 06:57:52;;;;;;;;;;;26.90;90.10;;;;;;5124959;28;19971;-57
2022/09/30 07:00:18;;;;;;;;;;;26.80;90.10;;;;;;5125358;28;19931;-56
2022/09/30 07:02:45;;;;;;;;;;;26.90;90.20;;;;;;5124635;28;20181;-58
2022/09/30 07:05:11;;;;;;;;;;;26.90;90.20;;;;;;5125118;28;19944;-57
2022/09/30 07:07:37;;;;;;;;;;;26.90;90.50;;;;;;5124932;28;19911;-63
2022/09/30 07:10:03;;;;;;;;;;;26.80;90.60;;;;;;5125373;28;19903;-56
2022/09/30 07:12:30;;;;;;;;;;;26.90;90.40;;;;;;5124747;28;19904;-59
2022/09/30 07:14:56;;;;;;;;;;;26.90;90.40;;;;;;5124962;28;19911;-59
2022/09/30 07:17:22;;;;;;;;;;;26.80;90.40;;;;;;5124928;28;19904;-57
2022/09/30 07:19:50;;;;;;;;;;;26.80;90.30;;;;;;5124748;28;19916;-57
2022/09/30 07:22:27;;;;;;;;;;;26.80;90.40;;;;;;5124839;28;19900;-57
2022/09/30 07:24:54;;;;;;;;;;;26.90;90.40;;;;;;5124414;28;25084;-56
2022/09/30 07:27:20;;;;;;;;;;;26.80;90.40;;;;;;5124685;28;19907;-57
2022/09/30 07:29:46;;;;;;;;;;;26.80;90.40;;;;;;5124415;28;24105;-60
2022/09/30 07:32:12;;;;;;;;;;;26.90;90.40;;;;;;5124505;28;19982;-56
2022/09/30 07:34:42;;;;;;;;;;;26.90;90.40;;;;;;5124119;28;19926;-56
2022/09/30 07:37:13;;;;;;;;;;;26.90;90.40;;;;;;5124409;28;19904;-59
2022/09/30 07:39:43;;;;;;;;;;;26.80;90.40;;;;;;5123744;28;19907;-58
2022/09/30 07:42:10;;;;;;;;;;;26.80;90.40;;;;;;5124257;28;19945;-58
2022/09/30 07:44:40;;;;;;;;;;;26.80;90.50;;;;;;5123975;28;19899;-58
2022/09/30 07:47:08;;;;;;;;;;;26.80;90.60;;;;;;5124408;28;20180;-57
2022/09/30 07:49:34;;;;;;;;;;;26.80;90.50;;;;;;5124088;28;24066;-56
2022/09/30 07:52:01;;;;;;;;;;;26.80;90.50;;;;;;5124833;28;19966;-56
2022/09/30 07:54:28;;;;;;;;;;;26.80;90.40;;;;;;5124326;28;19907;-56
2022/09/30 07:56:55;;;;;;;;;;;26.80;90.60;;;;;;5124363;28;19909;-57
2022/09/30 07:59:22;;;;;;;;;;;26.80;90.70;;;;;;5124432;28;19900;-57
2022/09/30 08:01:48;;;;;;;;;;;26.70;90.80;;;;;;5124472;28;19912;-56
2022/09/30 08:04:15;;;;;;;;;;;26.80;90.90;;;;;;5124184;28;19945;-57
2022/09/30 08:06:44;;;;;;;;;;;26.70;90.90;;;;;;5124584;28;19908;-58
2022/09/30 08:09:11;;;;;;;;;;;26.70;90.90;;;;;;5123918;28;19906;-57
2022/09/30 08:11:37;;;;;;;;;;;26.70;91.00;;;;;;5124869;28;19904;-58
2022/09/30 08:14:04;;;;;;;;;;;26.70;91.00;;;;;;5124044;28;19941;-57
2022/09/30 08:16:30;;;;;;;;;;;26.80;91.10;;;;;;5124458;28;19908;-57
2022/09/30 08:19:00;;;;;;;;;;;26.70;91.10;;;;;;5124107;28;19904;-57
2022/09/30 08:21:27;;;;;;;;;;;26.70;91.10;;;;;;5124514;28;19971;-62
2022/09/30 08:23:53;;;;;;;;;;;26.70;91.00;;;;;;5123913;28;19942;-57
2022/09/30 08:26:19;;;;;;;;;;;26.70;90.90;;;;;;5124569;28;20128;-56
2022/09/30 08:28:47;;;;;;;;;;;26.70;90.80;;;;;;5124122;28;19907;-58
2022/09/30 08:31:14;;;;;;;;;;;26.70;90.70;;;;;;5124003;28;19982;-57
2022/09/30 08:33:40;;;;;;;;;;;26.70;90.50;;;;;;5105902;28;24132;-56
2022/09/30 08:36:11;;;;;;;;;;;26.70;90.50;;;;;;5123744;28;19911;-57
2022/09/30 08:38:38;;;;;;;;;;;26.70;90.50;;;;;;5123576;28;24066;-57
2022/09/30 08:41:22;;;;;;;;;;;26.70;90.60;;;;;;5124560;28;19904;-56
2022/09/30 08:43:57;;;;;;;;;;;26.70;90.60;;;;;;5123798;28;19917;-62
2022/09/30 08:46:50;;;;;;;;;;;26.70;90.60;;;;;;5124728;28;19948;-56
2022/09/30 08:49:25;;;;;;;;;;;26.70;90.60;;;;;;5086664;28;25107;-56
2022/09/30 08:51:52;;;;;;;;;;;26.70;90.70;;;;;;5124902;28;24069;-58
2022/09/30 08:54:20;;;;;;;;;;;26.70;90.70;;;;;;5127233;28;19912;-56
2022/09/30 08:56:47;;;;;;;;;;;26.70;90.70;;;;;;5128091;28;19908;-57
2022/09/30 08:59:16;;;;;;;;;;;26.70;90.80;;;;;;5127508;28;19900;-56
2022/09/30 09:01:45;;;;;;;;;;;26.70;90.80;;;;;;5127788;28;24081;-58
2022/09/30 09:04:12;;;;;;;;;;;26.70;90.80;;;;;;5127099;28;24057;-56
2022/09/30 09:06:38;;;;;;;;;;;26.70;90.90;;;;;;5127823;28;19908;-56
2022/09/30 09:09:22;;;;;;;;;;;26.70;90.90;;;;;;5127340;28;19899;-55
2022/09/30 09:11:48;;;;;;;;;;;26.70;90.90;;;;;;5127832;28;20130;-55
2022/09/30 09:14:14;;;;;;;;;;;26.70;90.90;;;;;;5127284;28;19900;-56
2022/09/30 09:17:09;;;;;;;;;;;26.70;91.00;;;;;;5127311;28;19907;-56
2022/09/30 09:19:37;;;;;;;;;;;26.70;91.00;;;;;;5102515;28;19941;-56
2022/09/30 09:22:04;;;;;;;;;;;26.70;91.00;;;;;;5126793;28;19964;-58
2022/09/30 09:24:44;;;;;;;;;;;26.70;91.10;;;;;;5126717;28;24098;-55
2022/09/30 09:27:18;;;;;;;;;;;26.70;91.00;;;;;;5126817;28;19910;-58
2022/09/30 09:30:05;;;;;;;;;;;26.70;91.30;;;;;;5126744;28;20184;-57
2022/09/30 09:32:31;;;;;;;;;;;26.60;91.10;;;;;;5126497;28;19939;-56
2022/09/30 09:35:00;;;;;;;;;;;26.60;91.20;;;;;;5126741;28;20181;-55
2022/09/30 09:40:35;;;;;;;;;;;26.60;91.30;;;;;;5126852;28;25083;-60
2022/09/30 09:43:09;;;;;;;;;;;26.60;91.50;;;;;;5126720;28;19911;-55
2022/09/30 09:45:45;;;;;;;;;;;26.60;91.60;;;;;;5126737;28;19907;-57
2022/09/30 09:48:14;;;;;;;;;;;26.60;91.60;;;;;;5126358;28;20096;-58
2022/09/30 09:51:01;;;;;;;;;;;26.60;91.70;;;;;;5126706;28;19947;-57
2022/09/30 09:53:38;;;;;;;;;;;26.60;91.70;;;;;;5112308;28;19996;-56
2022/09/30 09:56:17;;;;;;;;;;;26.60;92.00;;;;;;5126467;28;24083;-55
2022/09/30 09:59:04;;;;;;;;;;;26.60;91.80;;;;;;5125754;28;19948;-56
2022/09/30 10:01:33;;;;;;;;;;;26.60;91.80;;;;;;5126642;28;19943;-54
2022/09/30 10:04:23;;;;;;;;;;;26.60;91.90;;;;;;5125599;28;20184;-55
2022/09/30 10:06:49;;;;;;;;;;;26.60;91.90;;;;;;5126138;28;19907;-57
2022/09/30 10:09:23;;;;;;;;;;;26.60;92.00;;;;;;5125597;28;24098;-55
2022/09/30 10:11:49;;;;;;;;;;;26.60;92.00;;;;;;5126465;28;19908;-57
2022/09/30 10:14:17;;;;;;;;;;;26.60;92.10;;;;;;5125763;28;24088;-57
2022/09/30 10:16:44;;;;;;;;;;;26.60;92.10;;;;;;5126160;28;20188;-60
2022/09/30 10:19:30;;;;;;;;;;;26.60;92.10;;;;;;5125939;28;19908;-57
2022/09/30 10:22:08;;;;;;;;;;;26.60;92.10;;;;;;5125273;28;19987;-57
2022/09/30 10:24:36;;;;;;;;;;;26.60;92.00;;;;;;5125616;28;24077;-58
2022/09/30 10:27:03;;;;;;;;;;;26.60;92.00;;;;;;5125629;28;19910;-57
2022/09/30 10:29:31;;;;;;;;;;;26.60;92.00;;;;;;5125646;28;19949;-54
2022/09/30 10:31:58;;;;;;;;;;;26.60;92.00;;;;;;5118138;28;19946;-57
2022/09/30 10:34:29;;;;;;;;;;;26.60;92.00;;;;;;5105042;28;20099;-56
2022/09/30 10:36:57;;;;;;;;;;;26.60;91.90;;;;;;5105245;28;25103;-57
2022/09/30 10:39:25;;;;;;;;;;;26.60;91.90;;;;;;5105079;28;19943;-58
2022/09/30 10:42:00;;;;;;;;;;;26.50;91.80;;;;;;5105398;28;19915;-58
2022/09/30 10:44:27;;;;;;;;;;;26.50;91.80;;;;;;5104939;28;19910;-57
2022/09/30 10:46:57;;;;;;;;;;;26.60;91.80;;;;;;5105258;28;19908;-58
2022/09/30 10:49:26;;;;;;;;;;;26.60;91.70;;;;;;5105034;28;19923;-60
2022/09/30 10:51:53;;;;;;;;;;;26.60;91.70;;;;;;5105405;28;19912;-60
2022/09/30 10:54:42;;;;;;;;;;;26.50;91.60;;;;;;5104697;28;19914;-57
2022/09/30 10:57:15;;;;;;;;;;;26.50;91.60;;;;;;5105077;28;19908;-61
2022/09/30 10:59:42;;;;;;;;;;;26.50;91.60;;;;;;5104456;28;24079;-57
2022/09/30 11:02:18;;;;;;;;;;;26.50;91.70;;;;;;5086727;28;20251;-57
2022/09/30 11:04:47;;;;;;;;;;;26.50;91.70;;;;;;5104024;28;19939;-57
2022/09/30 11:07:22;;;;;;;;;;;26.50;91.70;;;;;;5104773;28;20175;-56
2022/09/30 11:09:52;;;;;;;;;;;26.50;91.80;;;;;;5104554;28;19965;-59
2022/09/30 11:12:18;;;;;;;;;;;26.50;91.70;;;;;;5104575;28;19904;-59
2022/09/30 11:15:03;;;;;;;;;;;26.50;91.80;;;;;;5103751;28;19904;-57
2022/09/30 11:17:53;;;;;;;;;;;26.60;91.90;;;;;;5104451;28;20092;-57
2022/09/30 11:20:27;;;;;;;;;;;26.60;92.00;;;;;;5091784;28;19946;-56
2022/09/30 11:22:58;;;;;;;;;;;26.60;92.00;;;;;;5104287;28;19908;-59
2022/09/30 11:25:46;;;;;;;;;;;26.60;92.20;;;;;;5104550;28;19911;-56
2022/09/30 11:28:25;;;;;;;;;;;26.60;92.20;;;;;;5104330;28;20104;-54
2022/09/30 11:31:00;;;;;;;;;;;26.60;92.30;;;;;;5104718;28;24093;-53
2022/09/30 11:33:29;;;;;;;;;;;26.60;92.30;;;;;;5123995;28;24089;-53
2022/09/30 11:36:13;;;;;;;;;;;26.60;92.40;;;;;;5124880;28;24099;-53
2022/09/30 11:38:46;;;;;;;;;;;26.60;92.40;;;;;;5124605;28;19949;-53
2022/09/30 11:41:32;;;;;;;;;;;26.60;92.50;;;;;;5124403;28;19904;-58
2022/09/30 11:44:07;;;;;;;;;;;26.60;92.50;;;;;;5122839;28;19903;-56
2022/09/30 11:46:44;;;;;;;;;;;26.60;92.50;;;;;;5123520;28;19908;-53
2022/09/30 11:49:18;;;;;;;;;;;26.60;92.50;;;;;;5122897;28;24075;-54
2022/09/30 11:52:03;;;;;;;;;;;26.60;92.60;;;;;;5123214;28;19911;-56
2022/09/30 11:54:44;;;;;;;;;;;26.60;92.60;;;;;;5123236;28;19953;-56
2022/09/30 11:57:10;;;;;;;;;;;26.60;92.70;;;;;;5124096;28;24062;-55
2022/09/30 11:59:59;;;;;;;;;;;26.60;92.70;;;;;;5124298;28;19904;-54
2022/09/30 12:02:55;;;;;;;;;;;26.60;92.70;;;;;;5116472;28;19903;-55
2022/09/30 12:05:26;;;;;;;;;;;26.60;92.80;;;;;;5111371;28;24075;-55
2022/09/30 12:08:02;;;;;;;;;;;26.60;92.80;;;;;;5124493;28;20202;-55
2022/09/30 12:10:28;;;;;;;;;;;26.60;92.90;;;;;;5124628;28;20024;-54
2022/09/30 12:13:05;;;;;;;;;;;26.60;93.00;;;;;;5124556;28;19911;-56
2022/09/30 12:15:33;;;;;;;;;;;26.60;93.10;;;;;;5124555;28;24058;-56
2022/09/30 12:18:09;;;;;;;;;;;26.50;93.20;;;;;;5124554;28;19899;-54
2022/09/30 12:20:38;;;;;;;;;;;26.50;93.20;;;;;;5124114;28;20148;-54
2022/09/30 12:23:09;;;;;;;;;;;26.50;93.10;;;;;;5124262;28;24108;-54
2022/09/30 12:25:40;;;;;;;;;;;26.50;93.10;;;;;;5124555;28;19907;-55
2022/09/30 12:31:14;;;;;;;;;;;26.50;93.10;;;;;;5128170;28;24110;-54
2022/09/30 12:33:49;;;;;;;;;;;26.60;93.00;;;;;;5127955;28;19908;-56
2022/09/30 12:36:21;;;;;;;;;;;26.60;93.10;;;;;;5127891;28;19918;-57
2022/09/30 12:39:05;;;;;;;;;;;26.60;93.00;;;;;;5127973;28;24070;-55
2022/09/30 12:41:39;;;;;;;;;;;26.60;93.00;;;;;;5128419;28;19927;-55
2022/09/30 12:44:24;;;;;;;;;;;26.60;93.10;;;;;;5128053;28;20185;-54
2022/09/30 12:46:59;;;;;;;;;;;26.60;93.00;;;;;;5128435;28;24062;-55
2022/09/30 12:49:26;;;;;;;;;;;26.60;92.70;;;;;;5127751;28;19903;-57
2022/09/30 12:51:55;;;;;;;;;;;26.60;92.60;;;;;;5126916;28;19950;-54
2022/09/30 12:54:26;;;;;;;;;;;26.60;92.50;;;;;;5127544;28;24062;-57
2022/09/30 12:56:53;;;;;;;;;;;26.60;92.40;;;;;;5128180;28;19908;-58
2022/09/30 12:59:24;;;;;;;;;;;26.60;92.40;;;;;;5127388;28;20100;-53
2022/09/30 13:01:50;;;;;;;;;;;26.60;92.30;;;;;;5127889;28;19953;-55
2022/09/30 13:04:31;;;;;;;;;;;26.60;92.30;;;;;;5127685;28;19911;-53
2022/09/30 13:06:58;;;;;;;;;;;26.60;92.20;;;;;;5127341;28;24091;-62
2022/09/30 13:09:33;;;;;;;;;;;26.60;92.20;;;;;;5127576;28;19978;-56
2022/09/30 13:11:59;;;;;;;;;;;26.60;92.10;;;;;;5127364;28;19937;-54
2022/09/30 13:14:35;;;;;;;;;;;26.60;92.00;;;;;;5127139;28;19911;-52
2022/09/30 13:17:07;;;;;;;;;;;26.60;92.00;;;;;;5127205;28;19907;-54
2022/09/30 13:19:35;;;;;;;;;;;26.60;91.80;;;;;;5127029;28;19904;-58
2022/09/30 13:22:28;;;;;;;;;;;26.60;91.70;;;;;;5127043;28;19910;-56
2022/09/30 13:24:59;;;;;;;;;;;26.50;91.80;;;;;;5126966;28;24075;-56
2022/09/30 13:27:43;;;;;;;;;;;26.50;91.90;;;;;;5127274;28;24084;-58
2022/09/30 13:30:12;;;;;;;;;;;26.50;92.00;;;;;;5126970;28;24113;-56
2022/09/30 13:32:40;;;;;;;;;;;26.50;92.00;;;;;;5126606;28;24074;-53
2022/09/30 13:35:24;;;;;;;;;;;26.60;92.00;;;;;;5127117;28;19917;-57
2022/09/30 13:38:09;;;;;;;;;;;26.60;91.90;;;;;;5126141;28;25046;-53
2022/09/30 13:40:36;;;;;;;;;;;26.60;91.90;;;;;;5126825;28;24109;-55
2022/09/30 13:43:10;;;;;;;;;;;26.70;91.90;;;;;;5126904;28;19912;-54
2022/09/30 13:45:38;;;;;;;;;;;26.70;92.00;;;;;;5126820;28;25053;-57
2022/09/30 13:48:22;;;;;;;;;;;26.60;91.90;;;;;;5126519;28;24103;-56
2022/09/30 13:50:51;;;;;;;;;;;26.70;91.90;;;;;;5126849;28;24072;-58
2022/09/30 13:53:23;;;;;;;;;;;26.70;91.90;;;;;;5126375;28;24076;-57
2022/09/30 13:55:52;;;;;;;;;;;26.70;91.90;;;;;;5126323;28;20122;-57
2022/09/30 13:58:38;;;;;;;;;;;26.70;91.90;;;;;;5126234;28;19903;-55
2022/09/30 14:01:09;;;;;;;;;;;26.80;91.90;;;;;;5126320;28;19939;-56
2022/09/30 14:03:38;;;;;;;;;;;26.70;91.80;;;;;;5126592;28;19903;-56
2022/09/30 14:06:08;;;;;;;;;;;26.80;91.80;;;;;;5126218;28;24084;-56
2022/09/30 14:08:40;;;;;;;;;;;26.80;91.80;;;;;;5126153;28;19903;-55
2022/09/30 14:11:14;;;;;;;;;;;26.80;91.80;;;;;;5125993;28;24079;-54
2022/09/30 14:13:59;;;;;;;;;;;26.80;91.80;;;;;;5126224;28;19903;-57
2022/09/30 14:16:44;;;;;;;;;;;26.80;91.90;;;;;;5126173;28;24093;-61
2022/09/30 14:19:41;;;;;;;;;;;26.80;91.90;;;;;;5125951;28;19950;-60
2022/09/30 14:22:09;;;;;;;;;;;26.80;91.90;;;;;;5071225;28;19908;-58
2022/09/30 14:24:36;;;;;;;;;;;26.80;91.80;;;;;;5125670;28;20073;-56
2022/09/30 14:27:08;;;;;;;;;;;26.80;91.70;;;;;;5125313;28;19907;-55
2022/09/30 14:29:34;;;;;;;;;;;26.80;91.60;;;;;;5125833;28;19931;-56
2022/09/30 14:32:08;;;;;;;;;;;26.80;91.60;;;;;;5125233;28;25091;-54
2022/09/30 14:34:36;;;;;;;;;;;26.80;91.40;;;;;;5125376;28;19919;-54
2022/09/30 14:37:03;;;;;;;;;;;26.80;91.40;;;;;;5125289;28;19947;-54
2022/09/30 14:39:31;;;;;;;;;;;26.80;91.40;;;;;;5125120;28;19899;-52
2022/09/30 14:42:04;;;;;;;;;;;26.80;91.40;;;;;;5125190;28;19915;-55
2022/09/30 14:44:33;;;;;;;;;;;26.90;91.30;;;;;;5125032;28;19911;-58